CFG5PC LEPA-EDLW
Flight info
| Callsign | CFG5PC |
|---|---|
| Flight time | 2h 0m |
| Altitude | 36000 |
| Route | GALAT DCT RODRA DCT VNV DCT ANTON DCT BISES DCT SADUR DCT CAVES DCT LATRO DCT OLOXO DCT OKABI DCT TOU DCT ADABI DCT BOKNO DCT DIBES DCT VIQAQ DCT TSU UN858 OQQAL DCT RANUX DCT VALEK DCT LUTAX UM163 DIK T856 AFNAF M170 ADEMI ADEMI2A |
| Aircraft | A321/M-SDE2E3FGHIJ1RWXYZ/LB1 |
Departure
| Time | 2026-05-04 13:34 |
|---|---|
| Airport | Palma de Mallorca Airport (LEPA) |
Arrival
| Time | 2026-05-04 15:34 |
|---|---|
| Airport | Dortmund Airport (EDLW) |
| Time | Latitude | Longitude | Altitude | Speed | Heading |
|---|---|---|---|---|---|
| 2026-05-04 12:54 | 39.54904 | 2.73807 | 37 ft | 0 kts | 249° |
| 2026-05-04 13:24 | 39.54910 | 2.73829 | 38 ft | 3 kts | 249° |
| 2026-05-04 13:24 | 39.54918 | 2.73853 | 37 ft | 3 kts | 249° |
| 2026-05-04 13:24 | 39.54925 | 2.73878 | 36 ft | 3 kts | 249° |
| 2026-05-04 13:25 | 39.54940 | 2.73919 | 36 ft | 3 kts | 204° |
| 2026-05-04 13:25 | 39.54954 | 2.73920 | 38 ft | 3 kts | 149° |
| 2026-05-04 13:25 | 39.54971 | 2.73906 | 35 ft | 3 kts | 144° |
| 2026-05-04 13:25 | 39.54980 | 2.73897 | 35 ft | 0 kts | 149° |
| 2026-05-04 13:27 | 39.54973 | 2.73903 | 35 ft | 5 kts | 149° |
| 2026-05-04 13:28 | 39.54935 | 2.73965 | 38 ft | 11 kts | 87° |
| 2026-05-04 13:28 | 39.54986 | 2.73997 | 38 ft | 9 kts | 341° |
| 2026-05-04 13:28 | 39.55075 | 2.73929 | 38 ft | 20 kts | 328° |
| 2026-05-04 13:28 | 39.55190 | 2.73839 | 38 ft | 19 kts | 328° |
| 2026-05-04 13:29 | 39.55297 | 2.73753 | 38 ft | 18 kts | 328° |
| 2026-05-04 13:29 | 39.55397 | 2.73674 | 38 ft | 16 kts | 329° |
| 2026-05-04 13:29 | 39.55491 | 2.73601 | 37 ft | 15 kts | 329° |
| 2026-05-04 13:29 | 39.55578 | 2.73534 | 38 ft | 14 kts | 329° |
| 2026-05-04 13:30 | 39.55661 | 2.73517 | 38 ft | 11 kts | 37° |
| 2026-05-04 13:30 | 39.55705 | 2.73606 | 38 ft | 15 kts | 58° |
| 2026-05-04 13:30 | 39.55773 | 2.73750 | 38 ft | 23 kts | 58° |
| 2026-05-04 13:30 | 39.55869 | 2.73956 | 37 ft | 30 kts | 59° |
| 2026-05-04 13:31 | 39.55976 | 2.74185 | 38 ft | 29 kts | 58° |
| 2026-05-04 13:31 | 39.56079 | 2.74398 | 38 ft | 27 kts | 55° |
| 2026-05-04 13:31 | 39.56211 | 2.74414 | 37 ft | 19 kts | 326° |
| 2026-05-04 13:31 | 39.56236 | 2.74286 | 38 ft | 11 kts | 241° |
| 2026-05-04 13:32 | 39.56225 | 2.74262 | 38 ft | 0 kts | 239° |
| 2026-05-04 13:33 | 39.56189 | 2.74185 | 38 ft | 36 kts | 239° |
| 2026-05-04 13:33 | 39.55941 | 2.73667 | 38 ft | 97 kts | 238° |
| 2026-05-04 13:34 | 39.55509 | 2.72738 | 37 ft | 142 kts | 239° |
| 2026-05-04 13:34 | 39.54947 | 2.71551 | 337 ft | 155 kts | 237° |
| 2026-05-04 13:34 | 39.54396 | 2.70381 | 1027 ft | 151 kts | 236° |
| 2026-05-04 13:34 | 39.53804 | 2.69208 | 1372 ft | 163 kts | 237° |
| 2026-05-04 13:35 | 39.53133 | 2.67898 | 1510 ft | 186 kts | 237° |
| 2026-05-04 13:35 | 39.51622 | 2.64938 | 2352 ft | 203 kts | 236° |
| 2026-05-04 13:35 | 39.50836 | 2.63398 | 2893 ft | 206 kts | 236° |
| 2026-05-04 13:36 | 39.50049 | 2.61855 | 3550 ft | 205 kts | 236° |
| 2026-05-04 13:36 | 39.49265 | 2.60316 | 4160 ft | 205 kts | 235° |
| 2026-05-04 13:36 | 39.48476 | 2.58768 | 4690 ft | 207 kts | 236° |
| 2026-05-04 13:36 | 39.47691 | 2.57232 | 5216 ft | 208 kts | 236° |
| 2026-05-04 13:37 | 39.46892 | 2.55668 | 5743 ft | 209 kts | 235° |
| 2026-05-04 13:37 | 39.46085 | 2.54090 | 6276 ft | 211 kts | 235° |
| 2026-05-04 13:37 | 39.45290 | 2.52487 | 6769 ft | 214 kts | 241° |
| 2026-05-04 13:37 | 39.44997 | 2.51206 | 6863 ft | 231 kts | 265° |
| 2026-05-04 13:38 | 39.45806 | 2.48480 | 7132 ft | 272 kts | 311° |
| 2026-05-04 13:38 | 39.47306 | 2.46891 | 7647 ft | 283 kts | 318° |
| 2026-05-04 13:38 | 39.48897 | 2.45353 | 8286 ft | 287 kts | 319° |
| 2026-05-04 13:38 | 39.50515 | 2.43815 | 8952 ft | 290 kts | 319° |
| 2026-05-04 13:39 | 39.52149 | 2.42260 | 9603 ft | 293 kts | 319° |
| 2026-05-04 13:39 | 39.53798 | 2.40682 | 10236 ft | 298 kts | 318° |
| 2026-05-04 13:39 | 39.55574 | 2.39094 | 10389 ft | 323 kts | 326° |
| 2026-05-04 13:39 | 39.57584 | 2.37596 | 10517 ft | 344 kts | 326° |
| 2026-05-04 13:40 | 39.59725 | 2.35997 | 10713 ft | 364 kts | 326° |
| 2026-05-04 13:40 | 39.61949 | 2.34339 | 11275 ft | 372 kts | 326° |
| 2026-05-04 13:40 | 39.64203 | 2.32664 | 11921 ft | 374 kts | 326° |
| 2026-05-04 13:40 | 39.66469 | 2.30978 | 12532 ft | 377 kts | 326° |
| 2026-05-04 13:41 | 39.68727 | 2.29295 | 13141 ft | 379 kts | 326° |
| 2026-05-04 13:41 | 39.71023 | 2.27583 | 13777 ft | 381 kts | 326° |
| 2026-05-04 13:41 | 39.73331 | 2.25860 | 14319 ft | 384 kts | 326° |
| 2026-05-04 13:42 | 39.77982 | 2.22372 | 15374 ft | 388 kts | 325° |
| 2026-05-04 13:42 | 39.80326 | 2.20611 | 15880 ft | 391 kts | 325° |
| 2026-05-04 13:42 | 39.82697 | 2.18833 | 16384 ft | 394 kts | 325° |
| 2026-05-04 13:42 | 39.85074 | 2.17049 | 16889 ft | 396 kts | 325° |
| 2026-05-04 13:43 | 39.87465 | 2.15252 | 17393 ft | 398 kts | 325° |
| 2026-05-04 13:43 | 39.89874 | 2.13437 | 17903 ft | 400 kts | 325° |
| 2026-05-04 13:43 | 39.92293 | 2.11614 | 18369 ft | 402 kts | 324° |
| 2026-05-04 13:43 | 39.94727 | 2.09776 | 18788 ft | 405 kts | 324° |
| 2026-05-04 13:44 | 39.97171 | 2.07930 | 19191 ft | 407 kts | 324° |
| 2026-05-04 13:44 | 39.99632 | 2.06068 | 19591 ft | 410 kts | 324° |
| 2026-05-04 13:44 | 40.02105 | 2.04197 | 19989 ft | 413 kts | 324° |
| 2026-05-04 13:44 | 40.04601 | 2.02307 | 20372 ft | 416 kts | 324° |
| 2026-05-04 13:45 | 40.07107 | 2.00404 | 20756 ft | 418 kts | 323° |
| 2026-05-04 13:45 | 40.09597 | 1.98513 | 21135 ft | 421 kts | 323° |
| 2026-05-04 13:45 | 40.12136 | 1.96586 | 21524 ft | 423 kts | 323° |
| 2026-05-04 13:45 | 40.14778 | 1.94808 | 21902 ft | 432 kts | 331° |
| 2026-05-04 13:46 | 40.17672 | 1.93585 | 22275 ft | 443 kts | 341° |
| 2026-05-04 13:46 | 40.20723 | 1.92850 | 22641 ft | 448 kts | 344° |
| 2026-05-04 13:46 | 40.23812 | 1.92143 | 23026 ft | 451 kts | 344° |
| 2026-05-04 13:46 | 40.26915 | 1.91427 | 23375 ft | 454 kts | 344° |
| 2026-05-04 13:47 | 40.30036 | 1.90701 | 23704 ft | 457 kts | 343° |
| 2026-05-04 13:47 | 40.33179 | 1.89963 | 23951 ft | 460 kts | 343° |
| 2026-05-04 13:47 | 40.36347 | 1.89222 | 24238 ft | 463 kts | 343° |
| 2026-05-04 13:47 | 40.39532 | 1.88479 | 24528 ft | 466 kts | 343° |
| 2026-05-04 13:48 | 40.42732 | 1.87732 | 24819 ft | 468 kts | 343° |
| 2026-05-04 13:48 | 40.45942 | 1.86982 | 25107 ft | 470 kts | 343° |
| 2026-05-04 13:48 | 40.49139 | 1.86237 | 25388 ft | 473 kts | 343° |
| 2026-05-04 13:48 | 40.52398 | 1.85478 | 25669 ft | 475 kts | 343° |
| 2026-05-04 13:49 | 40.55662 | 1.84716 | 25949 ft | 478 kts | 343° |
| 2026-05-04 13:49 | 40.58941 | 1.83946 | 26218 ft | 480 kts | 343° |
| 2026-05-04 13:49 | 40.62238 | 1.83168 | 26484 ft | 482 kts | 343° |
| 2026-05-04 13:49 | 40.65549 | 1.82386 | 26744 ft | 484 kts | 343° |
| 2026-05-04 13:50 | 40.68871 | 1.81603 | 27003 ft | 486 kts | 343° |
| 2026-05-04 13:50 | 40.72209 | 1.80818 | 27262 ft | 488 kts | 343° |
| 2026-05-04 13:50 | 40.75568 | 1.80027 | 27520 ft | 491 kts | 343° |
| 2026-05-04 13:50 | 40.78938 | 1.79237 | 27780 ft | 493 kts | 343° |
| 2026-05-04 13:51 | 40.82318 | 1.78441 | 28040 ft | 495 kts | 343° |
| 2026-05-04 13:51 | 40.85709 | 1.77638 | 28285 ft | 497 kts | 343° |
| 2026-05-04 13:51 | 40.89115 | 1.76832 | 28621 ft | 496 kts | 343° |
| 2026-05-04 13:51 | 40.92469 | 1.76038 | 28955 ft | 497 kts | 343° |
| 2026-05-04 13:52 | 40.99275 | 1.74424 | 29579 ft | 497 kts | 343° |
| 2026-05-04 13:52 | 41.02681 | 1.73615 | 29912 ft | 497 kts | 343° |
| 2026-05-04 13:52 | 41.06091 | 1.72824 | 30187 ft | 498 kts | 344° |
| 2026-05-04 13:53 | 41.09526 | 1.72155 | 30463 ft | 499 kts | 346° |
| 2026-05-04 13:53 | 41.12979 | 1.71611 | 30763 ft | 500 kts | 347° |
| 2026-05-04 13:53 | 41.16439 | 1.71144 | 31069 ft | 500 kts | 348° |
| 2026-05-04 13:54 | 41.23351 | 1.70242 | 31647 ft | 499 kts | 347° |
| 2026-05-04 13:54 | 41.26809 | 1.69748 | 31995 ft | 498 kts | 347° |
| 2026-05-04 13:54 | 41.33681 | 1.68678 | 32671 ft | 496 kts | 346° |
| 2026-05-04 13:55 | 41.37110 | 1.68128 | 32973 ft | 496 kts | 347° |
| 2026-05-04 13:55 | 41.43957 | 1.67042 | 33552 ft | 495 kts | 347° |
| 2026-05-04 13:55 | 41.47376 | 1.66502 | 33823 ft | 495 kts | 347° |
| 2026-05-04 13:56 | 41.50747 | 1.65975 | 34068 ft | 494 kts | 347° |
| 2026-05-04 13:56 | 41.54168 | 1.65438 | 34301 ft | 494 kts | 346° |
| 2026-05-04 13:56 | 41.60977 | 1.64375 | 34904 ft | 491 kts | 347° |
| 2026-05-04 13:57 | 41.64371 | 1.63851 | 35162 ft | 490 kts | 347° |
| 2026-05-04 13:57 | 41.67752 | 1.63327 | 35430 ft | 489 kts | 347° |
| 2026-05-04 13:58 | 41.77873 | 1.61725 | 35946 ft | 488 kts | 346° |
| 2026-05-04 13:58 | 41.87939 | 1.60123 | 35934 ft | 486 kts | 347° |
| 2026-05-04 13:59 | 41.94656 | 1.59068 | 35945 ft | 486 kts | 347° |
| 2026-05-04 14:00 | 42.04743 | 1.57476 | 35937 ft | 486 kts | 347° |
| 2026-05-04 14:00 | 42.14826 | 1.55876 | 35936 ft | 486 kts | 347° |
| 2026-05-04 14:01 | 42.21548 | 1.54810 | 35950 ft | 486 kts | 347° |
| 2026-05-04 14:02 | 42.31637 | 1.53187 | 35963 ft | 487 kts | 347° |
| 2026-05-04 14:02 | 42.38376 | 1.52108 | 35970 ft | 488 kts | 347° |
| 2026-05-04 14:03 | 42.43990 | 1.51215 | 35972 ft | 488 kts | 347° |
| 2026-05-04 14:03 | 42.50734 | 1.50128 | 35957 ft | 488 kts | 347° |
| 2026-05-04 14:04 | 42.61938 | 1.48313 | 35945 ft | 488 kts | 347° |
| 2026-05-04 14:04 | 42.67585 | 1.47406 | 35931 ft | 487 kts | 347° |
| 2026-05-04 14:05 | 42.77647 | 1.45794 | 35914 ft | 485 kts | 347° |
| 2026-05-04 14:06 | 42.84354 | 1.44701 | 35913 ft | 486 kts | 347° |
| 2026-05-04 14:06 | 42.91071 | 1.43608 | 35911 ft | 486 kts | 347° |
| 2026-05-04 14:07 | 42.97789 | 1.42529 | 35911 ft | 486 kts | 347° |
| 2026-05-04 14:07 | 43.04503 | 1.41442 | 35928 ft | 486 kts | 347° |
| 2026-05-04 14:08 | 43.11223 | 1.40351 | 35920 ft | 486 kts | 347° |
| 2026-05-04 14:08 | 43.17942 | 1.39247 | 35914 ft | 486 kts | 347° |
| 2026-05-04 14:09 | 43.28017 | 1.37599 | 35921 ft | 486 kts | 347° |
| 2026-05-04 14:10 | 43.38089 | 1.35944 | 35918 ft | 486 kts | 347° |
| 2026-05-04 14:10 | 43.44805 | 1.34823 | 35940 ft | 486 kts | 348° |
| 2026-05-04 14:11 | 43.51476 | 1.33727 | 35934 ft | 485 kts | 348° |
| 2026-05-04 14:11 | 43.61542 | 1.32075 | 35940 ft | 485 kts | 348° |
| 2026-05-04 14:12 | 43.68241 | 1.30953 | 35948 ft | 484 kts | 347° |
| 2026-05-04 14:13 | 43.78161 | 1.28574 | 35932 ft | 481 kts | 343° |
| 2026-05-04 14:13 | 43.84719 | 1.26722 | 35940 ft | 480 kts | 344° |
| 2026-05-04 14:14 | 43.91282 | 1.24959 | 35942 ft | 480 kts | 345° |
| 2026-05-04 14:14 | 44.01137 | 1.22449 | 35929 ft | 480 kts | 345° |
| 2026-05-04 14:15 | 44.14217 | 1.19037 | 35944 ft | 479 kts | 345° |
| 2026-05-04 14:16 | 44.24043 | 1.16463 | 35949 ft | 479 kts | 345° |
| 2026-05-04 14:17 | 44.33862 | 1.13875 | 35949 ft | 479 kts | 345° |
| 2026-05-04 14:18 | 44.43734 | 1.11284 | 35930 ft | 482 kts | 345° |
| 2026-05-04 14:19 | 44.56944 | 1.07799 | 35914 ft | 484 kts | 345° |
| 2026-05-04 14:19 | 44.63564 | 1.06039 | 35917 ft | 484 kts | 345° |
| 2026-05-04 14:20 | 44.70192 | 1.04273 | 35911 ft | 485 kts | 345° |
| 2026-05-04 14:20 | 44.76823 | 1.02501 | 35913 ft | 486 kts | 345° |
| 2026-05-04 14:21 | 44.86790 | 0.99836 | 35916 ft | 485 kts | 345° |
| 2026-05-04 14:21 | 44.93422 | 0.98057 | 35918 ft | 485 kts | 345° |
| 2026-05-04 14:22 | 45.00078 | 0.96275 | 35939 ft | 487 kts | 346° |
| 2026-05-04 14:22 | 45.06680 | 0.94508 | 35916 ft | 485 kts | 345° |
| 2026-05-04 14:23 | 45.16674 | 0.91797 | 35924 ft | 486 kts | 345° |
| 2026-05-04 14:24 | 45.23311 | 0.89995 | 35935 ft | 485 kts | 345° |
| 2026-05-04 14:24 | 45.29903 | 0.88205 | 35933 ft | 485 kts | 345° |
| 2026-05-04 14:25 | 45.36541 | 0.86404 | 35931 ft | 485 kts | 345° |
| 2026-05-04 14:25 | 45.46495 | 0.83690 | 35936 ft | 485 kts | 345° |
| 2026-05-04 14:26 | 45.53127 | 0.81875 | 35931 ft | 485 kts | 345° |
| 2026-05-04 14:26 | 45.59750 | 0.80047 | 35944 ft | 485 kts | 345° |
| 2026-05-04 14:27 | 45.66378 | 0.78214 | 35944 ft | 484 kts | 345° |
| 2026-05-04 14:27 | 45.73004 | 0.76392 | 35958 ft | 484 kts | 346° |
| 2026-05-04 14:28 | 45.79628 | 0.74573 | 35957 ft | 484 kts | 346° |
| 2026-05-04 14:28 | 45.86238 | 0.72735 | 35949 ft | 483 kts | 346° |
| 2026-05-04 14:29 | 45.99389 | 0.69074 | 35947 ft | 483 kts | 346° |
| 2026-05-04 14:30 | 46.05991 | 0.67232 | 35943 ft | 482 kts | 346° |
| 2026-05-04 14:31 | 46.15865 | 0.64464 | 35936 ft | 482 kts | 346° |
| 2026-05-04 14:32 | 46.29028 | 0.60760 | 35932 ft | 482 kts | 346° |
| 2026-05-04 14:32 | 46.35611 | 0.58900 | 35928 ft | 482 kts | 346° |
| 2026-05-04 14:33 | 46.42200 | 0.57036 | 35944 ft | 482 kts | 346° |
| 2026-05-04 14:33 | 46.48791 | 0.55170 | 35948 ft | 483 kts | 346° |
| 2026-05-04 14:34 | 46.55447 | 0.53818 | 35954 ft | 486 kts | 358° |
| 2026-05-04 14:34 | 46.62159 | 0.55053 | 35959 ft | 488 kts | 12° |
| 2026-05-04 14:35 | 46.68786 | 0.57255 | 35953 ft | 488 kts | 12° |
| 2026-05-04 14:35 | 46.75415 | 0.59446 | 35946 ft | 488 kts | 12° |
| 2026-05-04 14:36 | 46.82043 | 0.61640 | 35940 ft | 488 kts | 12° |
| 2026-05-04 14:36 | 46.88630 | 0.63815 | 35935 ft | 488 kts | 12° |
| 2026-05-04 14:37 | 46.95253 | 0.66016 | 35929 ft | 488 kts | 12° |
| 2026-05-04 14:37 | 47.01874 | 0.68254 | 35936 ft | 488 kts | 15° |
| 2026-05-04 14:38 | 47.08088 | 0.72171 | 35937 ft | 487 kts | 32° |
| 2026-05-04 14:38 | 47.13879 | 0.77347 | 35939 ft | 487 kts | 32° |
| 2026-05-04 14:39 | 47.19677 | 0.82507 | 35934 ft | 487 kts | 32° |
| 2026-05-04 14:39 | 47.25477 | 0.87690 | 35938 ft | 487 kts | 32° |
| 2026-05-04 14:40 | 47.34163 | 0.95496 | 35930 ft | 488 kts | 32° |
| 2026-05-04 14:40 | 47.39954 | 1.00716 | 35941 ft | 488 kts | 32° |
| 2026-05-04 14:41 | 47.45744 | 1.05935 | 35941 ft | 487 kts | 32° |
| 2026-05-04 14:42 | 47.55827 | 1.18629 | 35937 ft | 479 kts | 58° |
| 2026-05-04 14:42 | 47.59595 | 1.26781 | 35914 ft | 480 kts | 58° |
| 2026-05-04 14:43 | 47.63344 | 1.34963 | 35922 ft | 480 kts | 58° |
| 2026-05-04 14:43 | 47.67099 | 1.43148 | 35925 ft | 480 kts | 58° |
| 2026-05-04 14:44 | 47.70863 | 1.51348 | 35929 ft | 480 kts | 58° |
| 2026-05-04 14:44 | 47.74618 | 1.59569 | 35931 ft | 480 kts | 58° |
| 2026-05-04 14:45 | 47.78367 | 1.67803 | 35931 ft | 481 kts | 58° |
| 2026-05-04 14:45 | 47.82108 | 1.76046 | 35929 ft | 481 kts | 58° |
| 2026-05-04 14:46 | 47.85842 | 1.84301 | 35933 ft | 480 kts | 58° |
| 2026-05-04 14:46 | 47.89564 | 1.92559 | 35957 ft | 480 kts | 58° |
| 2026-05-04 14:47 | 47.93279 | 2.00831 | 35963 ft | 479 kts | 58° |
| 2026-05-04 14:47 | 47.96989 | 2.09095 | 35963 ft | 479 kts | 58° |
| 2026-05-04 14:48 | 48.00696 | 2.17362 | 35940 ft | 479 kts | 58° |
| 2026-05-04 14:48 | 48.03771 | 2.24247 | 35943 ft | 480 kts | 58° |
| 2026-05-04 14:49 | 48.07464 | 2.32559 | 35947 ft | 480 kts | 59° |
| 2026-05-04 14:49 | 48.11149 | 2.40885 | 35949 ft | 480 kts | 59° |
| 2026-05-04 14:50 | 48.14834 | 2.49225 | 35953 ft | 480 kts | 59° |
| 2026-05-04 14:50 | 48.18516 | 2.57571 | 35934 ft | 480 kts | 59° |
| 2026-05-04 14:51 | 48.22190 | 2.65931 | 35949 ft | 480 kts | 59° |
| 2026-05-04 14:51 | 48.25862 | 2.74310 | 35949 ft | 480 kts | 59° |
| 2026-05-04 14:52 | 48.29525 | 2.82694 | 35962 ft | 480 kts | 59° |
| 2026-05-04 14:52 | 48.33175 | 2.91107 | 35964 ft | 480 kts | 59° |
| 2026-05-04 14:53 | 48.36828 | 2.99534 | 35955 ft | 480 kts | 59° |
| 2026-05-04 14:53 | 48.40472 | 3.07957 | 35950 ft | 480 kts | 59° |
| 2026-05-04 14:54 | 48.44112 | 3.16405 | 35950 ft | 480 kts | 59° |
| 2026-05-04 14:54 | 48.47748 | 3.24860 | 35956 ft | 480 kts | 59° |
| 2026-05-04 14:55 | 48.51372 | 3.33317 | 35959 ft | 480 kts | 60° |
| 2026-05-04 14:55 | 48.54987 | 3.41803 | 35960 ft | 480 kts | 60° |
| 2026-05-04 14:56 | 48.58574 | 3.50230 | 35943 ft | 480 kts | 60° |
| 2026-05-04 14:56 | 48.62208 | 3.58789 | 35953 ft | 480 kts | 60° |
| 2026-05-04 14:57 | 48.65812 | 3.67293 | 35961 ft | 481 kts | 60° |
| 2026-05-04 14:57 | 48.69392 | 3.75772 | 35972 ft | 481 kts | 60° |
| 2026-05-04 14:58 | 48.72977 | 3.84309 | 35975 ft | 480 kts | 60° |
| 2026-05-04 14:58 | 48.76549 | 3.92847 | 35976 ft | 480 kts | 60° |
| 2026-05-04 14:59 | 48.80124 | 4.01396 | 35979 ft | 480 kts | 60° |
| 2026-05-04 15:00 | 48.85465 | 4.14241 | 35979 ft | 480 kts | 60° |
| 2026-05-04 15:00 | 48.89021 | 4.22822 | 35980 ft | 480 kts | 60° |
| 2026-05-04 15:01 | 48.94345 | 4.35725 | 35980 ft | 480 kts | 60° |
| 2026-05-04 15:01 | 48.97889 | 4.44343 | 35959 ft | 480 kts | 60° |
| 2026-05-04 15:02 | 49.01423 | 4.52978 | 35966 ft | 480 kts | 60° |
| 2026-05-04 15:02 | 49.04951 | 4.61627 | 35972 ft | 480 kts | 60° |
| 2026-05-04 15:03 | 49.08475 | 4.70278 | 35978 ft | 480 kts | 61° |
| 2026-05-04 15:03 | 49.11995 | 4.78935 | 35984 ft | 480 kts | 61° |
| 2026-05-04 15:04 | 49.15506 | 4.87615 | 35963 ft | 480 kts | 61° |
| 2026-05-04 15:04 | 49.19013 | 4.96312 | 35978 ft | 480 kts | 61° |
| 2026-05-04 15:05 | 49.22512 | 5.05019 | 35989 ft | 481 kts | 61° |
| 2026-05-04 15:05 | 49.25977 | 5.13685 | 35991 ft | 480 kts | 61° |
| 2026-05-04 15:06 | 49.29460 | 5.22410 | 35990 ft | 480 kts | 61° |
| 2026-05-04 15:07 | 49.34672 | 5.35515 | 35972 ft | 480 kts | 61° |
| 2026-05-04 15:07 | 49.38143 | 5.44280 | 35981 ft | 480 kts | 61° |
| 2026-05-04 15:08 | 49.41611 | 5.53069 | 35996 ft | 480 kts | 61° |
| 2026-05-04 15:08 | 49.45065 | 5.61863 | 36002 ft | 481 kts | 61° |
| 2026-05-04 15:09 | 49.48507 | 5.70662 | 35999 ft | 480 kts | 61° |
| 2026-05-04 15:09 | 49.52679 | 5.78707 | 35991 ft | 485 kts | 43° |
| 2026-05-04 15:10 | 49.58114 | 5.84926 | 36094 ft | 490 kts | 34° |
| 2026-05-04 15:10 | 49.60986 | 5.87838 | 35956 ft | 500 kts | 33° |
| 2026-05-04 15:11 | 49.69885 | 5.96563 | 36014 ft | 509 kts | 32° |
| 2026-05-04 15:11 | 49.75861 | 6.02523 | 36001 ft | 508 kts | 33° |
| 2026-05-04 15:12 | 49.81687 | 6.08441 | 36009 ft | 497 kts | 33° |
| 2026-05-04 15:12 | 49.87532 | 6.13962 | 36005 ft | 494 kts | 24° |
| 2026-05-04 15:13 | 49.93808 | 6.18349 | 36005 ft | 494 kts | 23° |
| 2026-05-04 15:13 | 50.00056 | 6.22772 | 35994 ft | 488 kts | 24° |
| 2026-05-04 15:14 | 50.06179 | 6.27278 | 36008 ft | 485 kts | 25° |
| 2026-05-04 15:14 | 50.12265 | 6.31799 | 36008 ft | 485 kts | 25° |
| 2026-05-04 15:15 | 50.18367 | 6.36302 | 36011 ft | 484 kts | 24° |
| 2026-05-04 15:15 | 50.24437 | 6.40777 | 36005 ft | 485 kts | 24° |
| 2026-05-04 15:16 | 50.33591 | 6.47553 | 35982 ft | 484 kts | 24° |
| 2026-05-04 15:17 | 50.42196 | 6.55778 | 35985 ft | 486 kts | 33° |
| 2026-05-04 15:17 | 50.50652 | 6.64587 | 35996 ft | 487 kts | 33° |
| 2026-05-04 15:18 | 50.56293 | 6.70486 | 36004 ft | 487 kts | 33° |
| 2026-05-04 15:19 | 50.64751 | 6.79363 | 36008 ft | 487 kts | 33° |
| 2026-05-04 15:19 | 50.73053 | 6.88625 | 36019 ft | 488 kts | 40° |
| 2026-05-04 15:20 | 50.78220 | 6.95563 | 36016 ft | 488 kts | 40° |
| 2026-05-04 15:20 | 50.83382 | 7.02503 | 36011 ft | 487 kts | 40° |
| 2026-05-04 15:21 | 50.85965 | 7.05979 | 35323 ft | 490 kts | 40° |
| 2026-05-04 15:21 | 50.88568 | 7.09488 | 33828 ft | 494 kts | 40° |
| 2026-05-04 15:21 | 50.93841 | 7.16635 | 30239 ft | 501 kts | 41° |
| 2026-05-04 15:22 | 50.96480 | 7.20223 | 28227 ft | 504 kts | 41° |
| 2026-05-04 15:22 | 50.99126 | 7.23824 | 26651 ft | 498 kts | 41° |
| 2026-05-04 15:22 | 51.04282 | 7.30852 | 23969 ft | 478 kts | 41° |
| 2026-05-04 15:23 | 51.06784 | 7.34265 | 22544 ft | 469 kts | 41° |
| 2026-05-04 15:23 | 51.09232 | 7.37612 | 21147 ft | 458 kts | 41° |
| 2026-05-04 15:23 | 51.11619 | 7.40890 | 19830 ft | 448 kts | 41° |
| 2026-05-04 15:23 | 51.13950 | 7.44096 | 18566 ft | 438 kts | 41° |
| 2026-05-04 15:24 | 51.18468 | 7.50311 | 15992 ft | 418 kts | 41° |
| 2026-05-04 15:24 | 51.22564 | 7.55943 | 15382 ft | 358 kts | 42° |
| 2026-05-04 15:25 | 51.24393 | 7.58460 | 15012 ft | 338 kts | 42° |
| 2026-05-04 15:25 | 51.26124 | 7.60853 | 14378 ft | 330 kts | 42° |
| 2026-05-04 15:25 | 51.27868 | 7.63270 | 13645 ft | 325 kts | 42° |
| 2026-05-04 15:26 | 51.31224 | 7.67920 | 12502 ft | 317 kts | 41° |
| 2026-05-04 15:26 | 51.32931 | 7.70141 | 11987 ft | 315 kts | 39° |
| 2026-05-04 15:26 | 51.36391 | 7.74318 | 10729 ft | 316 kts | 37° |
| 2026-05-04 15:27 | 51.38171 | 7.76424 | 10004 ft | 319 kts | 37° |
| 2026-05-04 15:27 | 51.41753 | 7.80709 | 8438 ft | 323 kts | 37° |
| 2026-05-04 15:28 | 51.45314 | 7.85104 | 6930 ft | 324 kts | 38° |
| 2026-05-04 15:28 | 51.47202 | 7.87054 | 6184 ft | 323 kts | 22° |
| 2026-05-04 15:28 | 51.51288 | 7.89788 | 5035 ft | 310 kts | 25° |
| 2026-05-04 15:29 | 51.53205 | 7.91222 | 4598 ft | 296 kts | 25° |
| 2026-05-04 15:30 | 51.59267 | 7.90313 | 3489 ft | 212 kts | 290° |
| 2026-05-04 15:30 | 51.59510 | 7.83924 | 3532 ft | 167 kts | 258° |
| 2026-05-04 15:31 | 51.58586 | 7.80578 | 2991 ft | 163 kts | 240° |
| 2026-05-04 15:31 | 51.58224 | 7.79507 | 2849 ft | 170 kts | 240° |
| 2026-05-04 15:32 | 51.56418 | 7.74304 | 2117 ft | 179 kts | 239° |
| 2026-05-04 15:32 | 51.55277 | 7.71039 | 1689 ft | 153 kts | 239° |
| 2026-05-04 15:33 | 51.54278 | 7.68190 | 1262 ft | 143 kts | 240° |
| 2026-05-04 15:34 | 51.52824 | 7.64055 | 694 ft | 140 kts | 243° |
| 2026-05-04 15:34 | 51.52348 | 7.62696 | 491 ft | 139 kts | 243° |
| 2026-05-04 15:34 | 51.51661 | 7.60734 | 410 ft | 41 kts | 240° |
| 2026-05-04 15:35 | 51.51470 | 7.60244 | 414 ft | 10 kts | 202° |
| 2026-05-04 15:35 | 51.51425 | 7.60250 | 413 ft | 3 kts | 160° |
| 2026-05-04 15:35 | 51.51410 | 7.60264 | 407 ft | 3 kts | 150° |
| 2026-05-04 15:36 | 51.51389 | 7.60477 | 420 ft | 22 kts | 59° |
| 2026-05-04 15:36 | 51.51473 | 7.60708 | 417 ft | 25 kts | 59° |
| 2026-05-04 15:36 | 51.51548 | 7.60921 | 425 ft | 19 kts | 62° |
| 2026-05-04 15:37 | 51.51588 | 7.61101 | 433 ft | 15 kts | 89° |
| 2026-05-04 15:37 | 51.51607 | 7.61250 | 427 ft | 10 kts | 61° |
| 2026-05-04 15:37 | 51.51610 | 7.61258 | 430 ft | 0 kts | 61° |
| 2026-05-04 15:40 | 51.51619 | 7.61284 | 425 ft | 4 kts | 62° |
| 2026-05-04 15:40 | 51.51622 | 7.61305 | 424 ft | 4 kts | 54° |
| 2026-05-04 15:40 | 51.51619 | 7.61319 | 430 ft | 0 kts | 125° |
| 2026-05-04 15:43 | 51.51619 | 7.61329 | 432 ft | 1 kts | 88° |
| 2026-05-04 15:43 | 51.51624 | 7.61334 | 429 ft | 1 kts | 39° |
| 2026-05-04 15:43 | 51.51643 | 7.61333 | 431 ft | 8 kts | 356° |
| 2026-05-04 15:44 | 51.51659 | 7.61286 | 430 ft | 9 kts | 262° |
| 2026-05-04 15:44 | 51.51633 | 7.61221 | 426 ft | 4 kts | 203° |
| 2026-05-04 15:44 | 51.51626 | 7.61221 | 426 ft | 2 kts | 183° |
| 2026-05-04 15:44 | 51.51613 | 7.61236 | 421 ft | 3 kts | 126° |
| 2026-05-04 15:45 | 51.51624 | 7.61298 | 423 ft | 7 kts | 61° |
| 2026-05-04 15:45 | 51.51643 | 7.61353 | 430 ft | 4 kts | 61° |
| 2026-05-04 15:45 | 51.51646 | 7.61361 | 430 ft | 0 kts | 61° |